sensor_id;sensor_type;location;lat;lon;timestamp;temperature;humidity
45491;DHT22;31237;45.586;13.782;2023-12-20T00:01:33;6.50;97.20
45491;DHT22;31237;45.586;13.782;2023-12-20T00:03:58;6.50;97.20
45491;DHT22;31237;45.586;13.782;2023-12-20T00:06:24;6.50;97.20
45491;DHT22;31237;45.586;13.782;2023-12-20T00:08:50;6.50;97.20
45491;DHT22;31237;45.586;13.782;2023-12-20T00:11:15;6.50;97.20
45491;DHT22;31237;45.586;13.782;2023-12-20T00:13:41;6.50;97.20
45491;DHT22;31237;45.586;13.782;2023-12-20T00:16:07;6.60;97.30
45491;DHT22;31237;45.586;13.782;2023-12-20T00:18:32;6.60;97.30
45491;DHT22;31237;45.586;13.782;2023-12-20T00:20:58;6.60;97.30
45491;DHT22;31237;45.586;13.782;2023-12-20T00:23:24;6.70;97.20
45491;DHT22;31237;45.586;13.782;2023-12-20T00:25:50;6.60;97.10
45491;DHT22;31237;45.586;13.782;2023-12-20T00:28:15;6.70;97.10
45491;DHT22;31237;45.586;13.782;2023-12-20T00:30:41;6.60;97.00
45491;DHT22;31237;45.586;13.782;2023-12-20T00:33:07;6.60;97.00
45491;DHT22;31237;45.586;13.782;2023-12-20T00:35:32;6.70;97.10
45491;DHT22;31237;45.586;13.782;2023-12-20T00:37:58;6.70;97.00
45491;DHT22;31237;45.586;13.782;2023-12-20T00:40:24;6.70;97.00
45491;DHT22;31237;45.586;13.782;2023-12-20T00:42:50;6.70;97.00
45491;DHT22;31237;45.586;13.782;2023-12-20T00:45:16;6.70;96.90
45491;DHT22;31237;45.586;13.782;2023-12-20T00:47:42;6.80;96.90
45491;DHT22;31237;45.586;13.782;2023-12-20T00:50:08;6.80;96.80
45491;DHT22;31237;45.586;13.782;2023-12-20T00:52:34;6.80;96.70
45491;DHT22;31237;45.586;13.782;2023-12-20T00:55:00;6.80;96.40
45491;DHT22;31237;45.586;13.782;2023-12-20T00:57:26;6.80;96.40
45491;DHT22;31237;45.586;13.782;2023-12-20T00:59:51;6.80;96.20
45491;DHT22;31237;45.586;13.782;2023-12-20T01:02:17;6.90;96.00
45491;DHT22;31237;45.586;13.782;2023-12-20T01:04:43;6.90;95.90
45491;DHT22;31237;45.586;13.782;2023-12-20T01:07:09;6.90;95.50
45491;DHT22;31237;45.586;13.782;2023-12-20T01:09:34;6.90;95.20
45491;DHT22;31237;45.586;13.782;2023-12-20T01:12:00;6.90;94.90
45491;DHT22;31237;45.586;13.782;2023-12-20T01:14:26;6.90;94.60
45491;DHT22;31237;45.586;13.782;2023-12-20T01:16:51;7.00;94.30
45491;DHT22;31237;45.586;13.782;2023-12-20T01:19:17;7.00;93.90
45491;DHT22;31237;45.586;13.782;2023-12-20T01:21:43;7.00;93.60
45491;DHT22;31237;45.586;13.782;2023-12-20T01:24:09;7.10;93.50
45491;DHT22;31237;45.586;13.782;2023-12-20T01:26:35;7.10;93.20
45491;DHT22;31237;45.586;13.782;2023-12-20T01:29:01;7.10;92.90
45491;DHT22;31237;45.586;13.782;2023-12-20T01:31:27;7.10;92.70
45491;DHT22;31237;45.586;13.782;2023-12-20T01:33:53;7.00;92.30
45491;DHT22;31237;45.586;13.782;2023-12-20T01:36:18;7.10;92.00
45491;DHT22;31237;45.586;13.782;2023-12-20T01:38:45;7.00;91.70
45491;DHT22;31237;45.586;13.782;2023-12-20T01:41:10;7.00;91.50
45491;DHT22;31237;45.586;13.782;2023-12-20T01:43:36;7.00;91.50
45491;DHT22;31237;45.586;13.782;2023-12-20T01:46:02;7.00;91.30
45491;DHT22;31237;45.586;13.782;2023-12-20T01:48:29;7.00;91.10
45491;DHT22;31237;45.586;13.782;2023-12-20T01:50:55;7.00;91.00
45491;DHT22;31237;45.586;13.782;2023-12-20T01:53:24;7.00;91.10
45491;DHT22;31237;45.586;13.782;2023-12-20T01:55:52;7.10;90.90
45491;DHT22;31237;45.586;13.782;2023-12-20T01:58:20;7.00;90.80
45491;DHT22;31237;45.586;13.782;2023-12-20T02:00:46;7.00;90.70
45491;DHT22;31237;45.586;13.782;2023-12-20T02:03:12;7.00;90.70
45491;DHT22;31237;45.586;13.782;2023-12-20T02:05:38;7.00;90.70
45491;DHT22;31237;45.586;13.782;2023-12-20T02:08:04;7.00;90.70
45491;DHT22;31237;45.586;13.782;2023-12-20T02:10:31;6.90;90.60
45491;DHT22;31237;45.586;13.782;2023-12-20T02:12:57;6.90;90.60
45491;DHT22;31237;45.586;13.782;2023-12-20T02:15:23;6.90;90.60
45491;DHT22;31237;45.586;13.782;2023-12-20T02:17:49;6.90;90.60
45491;DHT22;31237;45.586;13.782;2023-12-20T02:20:15;6.80;90.60
45491;DHT22;31237;45.586;13.782;2023-12-20T02:22:41;6.80;90.60
45491;DHT22;31237;45.586;13.782;2023-12-20T02:25:07;6.80;90.60
45491;DHT22;31237;45.586;13.782;2023-12-20T02:27:33;6.80;90.60
45491;DHT22;31237;45.586;13.782;2023-12-20T02:29:58;6.70;90.50
45491;DHT22;31237;45.586;13.782;2023-12-20T02:32:24;6.80;90.60
45491;DHT22;31237;45.586;13.782;2023-12-20T02:34:54;6.70;90.50
45491;DHT22;31237;45.586;13.782;2023-12-20T02:37:20;6.70;90.50
45491;DHT22;31237;45.586;13.782;2023-12-20T02:39:45;6.70;90.50
45491;DHT22;31237;45.586;13.782;2023-12-20T02:42:11;6.70;90.50
45491;DHT22;31237;45.586;13.782;2023-12-20T02:44:37;6.70;90.40
45491;DHT22;31237;45.586;13.782;2023-12-20T02:47:03;6.70;90.40
45491;DHT22;31237;45.586;13.782;2023-12-20T02:49:29;6.70;90.40
45491;DHT22;31237;45.586;13.782;2023-12-20T02:51:54;6.60;90.30
45491;DHT22;31237;45.586;13.782;2023-12-20T02:54:20;6.60;90.40
45491;DHT22;31237;45.586;13.782;2023-12-20T02:56:46;6.60;90.60
45491;DHT22;31237;45.586;13.782;2023-12-20T02:59:12;6.50;90.30
45491;DHT22;31237;45.586;13.782;2023-12-20T03:01:45;6.50;90.30
45491;DHT22;31237;45.586;13.782;2023-12-20T03:04:12;6.50;90.30
45491;DHT22;31237;45.586;13.782;2023-12-20T03:06:38;6.50;90.30
45491;DHT22;31237;45.586;13.782;2023-12-20T03:09:04;6.50;90.40
45491;DHT22;31237;45.586;13.782;2023-12-20T03:11:30;6.50;90.40
45491;DHT22;31237;45.586;13.782;2023-12-20T03:13:56;6.50;90.50
45491;DHT22;31237;45.586;13.782;2023-12-20T03:16:22;6.40;90.50
45491;DHT22;31237;45.586;13.782;2023-12-20T03:18:48;6.40;90.50
45491;DHT22;31237;45.586;13.782;2023-12-20T03:21:14;6.40;90.50
45491;DHT22;31237;45.586;13.782;2023-12-20T03:23:40;6.40;90.60
45491;DHT22;31237;45.586;13.782;2023-12-20T03:26:09;6.30;90.70
45491;DHT22;31237;45.586;13.782;2023-12-20T03:28:36;6.30;90.80
45491;DHT22;31237;45.586;13.782;2023-12-20T03:31:03;6.30;90.90
45491;DHT22;31237;45.586;13.782;2023-12-20T03:33:29;6.30;91.10
45491;DHT22;31237;45.586;13.782;2023-12-20T03:35:55;6.30;91.30
45491;DHT22;31237;45.586;13.782;2023-12-20T03:38:21;6.30;91.60
45491;DHT22;31237;45.586;13.782;2023-12-20T03:40:49;6.40;91.70
45491;DHT22;31237;45.586;13.782;2023-12-20T03:43:15;6.30;91.80
45491;DHT22;31237;45.586;13.782;2023-12-20T03:45:42;6.40;92.00
45491;DHT22;31237;45.586;13.782;2023-12-20T03:48:08;6.40;92.20
45491;DHT22;31237;45.586;13.782;2023-12-20T03:50:34;6.40;92.40
45491;DHT22;31237;45.586;13.782;2023-12-20T03:53:00;6.40;92.60
45491;DHT22;31237;45.586;13.782;2023-12-20T03:55:26;6.40;92.80
45491;DHT22;31237;45.586;13.782;2023-12-20T03:57:51;6.40;93.30
45491;DHT22;31237;45.586;13.782;2023-12-20T04:00:17;6.40;93.70
45491;DHT22;31237;45.586;13.782;2023-12-20T04:02:43;6.40;94.00
45491;DHT22;31237;45.586;13.782;2023-12-20T04:05:10;6.40;94.30
45491;DHT22;31237;45.586;13.782;2023-12-20T04:07:36;6.50;94.60
45491;DHT22;31237;45.586;13.782;2023-12-20T04:10:02;6.50;94.80
45491;DHT22;31237;45.586;13.782;2023-12-20T04:12:29;6.50;94.70
45491;DHT22;31237;45.586;13.782;2023-12-20T04:14:55;6.50;94.70
45491;DHT22;31237;45.586;13.782;2023-12-20T04:17:20;6.50;94.90
45491;DHT22;31237;45.586;13.782;2023-12-20T04:19:48;6.50;95.10
45491;DHT22;31237;45.586;13.782;2023-12-20T04:22:14;6.50;95.40
45491;DHT22;31237;45.586;13.782;2023-12-20T04:24:40;6.50;95.60
45491;DHT22;31237;45.586;13.782;2023-12-20T04:27:08;6.50;95.60
45491;DHT22;31237;45.586;13.782;2023-12-20T04:29:34;6.50;95.60
45491;DHT22;31237;45.586;13.782;2023-12-20T04:31:59;6.50;95.60
45491;DHT22;31237;45.586;13.782;2023-12-20T04:34:25;6.50;95.80
45491;DHT22;31237;45.586;13.782;2023-12-20T04:36:51;6.40;96.10
45491;DHT22;31237;45.586;13.782;2023-12-20T04:39:17;6.50;96.20
45491;DHT22;31237;45.586;13.782;2023-12-20T04:41:43;6.40;96.30
45491;DHT22;31237;45.586;13.782;2023-12-20T04:44:09;6.40;96.30
45491;DHT22;31237;45.586;13.782;2023-12-20T04:46:34;6.40;96.40
45491;DHT22;31237;45.586;13.782;2023-12-20T04:49:00;6.40;96.50
45491;DHT22;31237;45.586;13.782;2023-12-20T04:51:27;6.40;96.70
45491;DHT22;31237;45.586;13.782;2023-12-20T04:53:52;6.30;96.90
45491;DHT22;31237;45.586;13.782;2023-12-20T04:56:18;6.30;97.00
45491;DHT22;31237;45.586;13.782;2023-12-20T04:58:44;6.30;97.30
45491;DHT22;31237;45.586;13.782;2023-12-20T05:01:09;6.30;97.50
45491;DHT22;31237;45.586;13.782;2023-12-20T05:03:35;6.20;97.60
45491;DHT22;31237;45.586;13.782;2023-12-20T05:06:01;6.20;97.70
45491;DHT22;31237;45.586;13.782;2023-12-20T05:08:27;6.10;97.70
45491;DHT22;31237;45.586;13.782;2023-12-20T05:10:56;6.10;97.80
45491;DHT22;31237;45.586;13.782;2023-12-20T05:13:22;6.00;97.90
45491;DHT22;31237;45.586;13.782;2023-12-20T05:15:47;5.90;98.00
45491;DHT22;31237;45.586;13.782;2023-12-20T05:18:13;5.90;98.40
45491;DHT22;31237;45.586;13.782;2023-12-20T05:20:39;5.90;98.30
45491;DHT22;31237;45.586;13.782;2023-12-20T05:23:05;5.80;98.40
45491;DHT22;31237;45.586;13.782;2023-12-20T05:25:32;5.80;98.60
45491;DHT22;31237;45.586;13.782;2023-12-20T05:27:58;5.80;98.70
45491;DHT22;31237;45.586;13.782;2023-12-20T05:30:23;5.90;99.00
45491;DHT22;31237;45.586;13.782;2023-12-20T05:32:49;5.80;99.20
45491;DHT22;31237;45.586;13.782;2023-12-20T05:35:15;5.90;99.40
45491;DHT22;31237;45.586;13.782;2023-12-20T05:37:41;6.00;99.60
45491;DHT22;31237;45.586;13.782;2023-12-20T05:40:07;6.00;99.70
45491;DHT22;31237;45.586;13.782;2023-12-20T05:42:36;6.10;99.80
45491;DHT22;31237;45.586;13.782;2023-12-20T05:45:03;6.10;99.90
45491;DHT22;31237;45.586;13.782;2023-12-20T05:47:29;6.10;99.90
45491;DHT22;31237;45.586;13.782;2023-12-20T05:49:55;6.20;99.90
45491;DHT22;31237;45.586;13.782;2023-12-20T05:52:21;6.20;99.90
45491;DHT22;31237;45.586;13.782;2023-12-20T05:54:47;6.20;99.90
45491;DHT22;31237;45.586;13.782;2023-12-20T05:57:13;6.20;99.80
45491;DHT22;31237;45.586;13.782;2023-12-20T05:59:38;6.30;99.70
45491;DHT22;31237;45.586;13.782;2023-12-20T06:02:04;6.30;99.60
45491;DHT22;31237;45.586;13.782;2023-12-20T06:04:30;6.30;99.40
45491;DHT22;31237;45.586;13.782;2023-12-20T06:06:56;6.40;99.20
45491;DHT22;31237;45.586;13.782;2023-12-20T06:09:22;6.40;99.00
45491;DHT22;31237;45.586;13.782;2023-12-20T06:11:47;6.40;98.80
45491;DHT22;31237;45.586;13.782;2023-12-20T06:14:13;6.40;98.40
45491;DHT22;31237;45.586;13.782;2023-12-20T06:16:39;6.40;98.20
45491;DHT22;31237;45.586;13.782;2023-12-20T06:19:04;6.40;98.00
45491;DHT22;31237;45.586;13.782;2023-12-20T06:21:30;6.40;97.80
45491;DHT22;31237;45.586;13.782;2023-12-20T06:23:58;6.30;97.60
45491;DHT22;31237;45.586;13.782;2023-12-20T06:26:24;6.30;97.50
45491;DHT22;31237;45.586;13.782;2023-12-20T06:28:50;6.20;97.50
45491;DHT22;31237;45.586;13.782;2023-12-20T06:31:15;6.20;97.40
45491;DHT22;31237;45.586;13.782;2023-12-20T06:33:42;6.10;97.40
45491;DHT22;31237;45.586;13.782;2023-12-20T06:36:11;6.00;97.50
45491;DHT22;31237;45.586;13.782;2023-12-20T06:38:37;6.00;97.60
45491;DHT22;31237;45.586;13.782;2023-12-20T06:41:03;6.00;97.60
45491;DHT22;31237;45.586;13.782;2023-12-20T06:43:28;5.90;97.60
45491;DHT22;31237;45.586;13.782;2023-12-20T06:45:55;5.90;97.70
45491;DHT22;31237;45.586;13.782;2023-12-20T06:48:21;5.90;97.90
45491;DHT22;31237;45.586;13.782;2023-12-20T06:50:47;5.90;97.90
45491;DHT22;31237;45.586;13.782;2023-12-20T06:53:12;5.90;97.80
45491;DHT22;31237;45.586;13.782;2023-12-20T06:55:38;5.90;98.00
45491;DHT22;31237;45.586;13.782;2023-12-20T06:58:04;6.00;98.10
45491;DHT22;31237;45.586;13.782;2023-12-20T07:00:30;6.00;98.20
45491;DHT22;31237;45.586;13.782;2023-12-20T07:02:56;6.10;98.00
45491;DHT22;31237;45.586;13.782;2023-12-20T07:05:22;6.10;97.90
45491;DHT22;31237;45.586;13.782;2023-12-20T07:07:48;6.10;97.90
45491;DHT22;31237;45.586;13.782;2023-12-20T07:10:13;6.20;97.90
45491;DHT22;31237;45.586;13.782;2023-12-20T07:12:39;6.20;97.70
45491;DHT22;31237;45.586;13.782;2023-12-20T07:15:05;6.30;97.60
45491;DHT22;31237;45.586;13.782;2023-12-20T07:17:33;6.30;97.50
45491;DHT22;31237;45.586;13.782;2023-12-20T07:19:59;6.40;97.40
45491;DHT22;31237;45.586;13.782;2023-12-20T07:22:29;6.40;97.20
45491;DHT22;31237;45.586;13.782;2023-12-20T07:24:57;6.50;97.10
45491;DHT22;31237;45.586;13.782;2023-12-20T07:27:23;6.50;96.80
45491;DHT22;31237;45.586;13.782;2023-12-20T07:29:49;6.50;96.50
45491;DHT22;31237;45.586;13.782;2023-12-20T07:32:15;6.60;96.30
45491;DHT22;31237;45.586;13.782;2023-12-20T07:34:40;6.70;96.20
45491;DHT22;31237;45.586;13.782;2023-12-20T07:37:06;6.70;95.90
45491;DHT22;31237;45.586;13.782;2023-12-20T07:39:32;6.80;95.80
45491;DHT22;31237;45.586;13.782;2023-12-20T07:41:57;6.80;95.70
45491;DHT22;31237;45.586;13.782;2023-12-20T07:44:23;6.90;95.40
45491;DHT22;31237;45.586;13.782;2023-12-20T07:46:49;6.90;95.30
45491;DHT22;31237;45.586;13.782;2023-12-20T07:49:15;6.90;95.10
45491;DHT22;31237;45.586;13.782;2023-12-20T07:51:41;7.00;95.00
45491;DHT22;31237;45.586;13.782;2023-12-20T07:54:06;7.10;94.80
45491;DHT22;31237;45.586;13.782;2023-12-20T07:56:33;7.20;94.70
45491;DHT22;31237;45.586;13.782;2023-12-20T07:58:59;7.20;94.60
45491;DHT22;31237;45.586;13.782;2023-12-20T08:01:24;7.40;94.50
45491;DHT22;31237;45.586;13.782;2023-12-20T08:03:50;7.40;94.40
45491;DHT22;31237;45.586;13.782;2023-12-20T08:06:16;7.50;94.20
45491;DHT22;31237;45.586;13.782;2023-12-20T08:08:43;7.60;94.10
45491;DHT22;31237;45.586;13.782;2023-12-20T08:11:08;7.70;93.90
45491;DHT22;31237;45.586;13.782;2023-12-20T08:13:34;7.80;93.80
45491;DHT22;31237;45.586;13.782;2023-12-20T08:16:00;7.90;93.70
45491;DHT22;31237;45.586;13.782;2023-12-20T08:18:28;8.00;93.60
45491;DHT22;31237;45.586;13.782;2023-12-20T08:20:53;8.10;93.50
45491;DHT22;31237;45.586;13.782;2023-12-20T08:23:19;8.10;93.50
45491;DHT22;31237;45.586;13.782;2023-12-20T08:25:46;8.20;93.40
45491;DHT22;31237;45.586;13.782;2023-12-20T08:28:12;8.30;93.20
45491;DHT22;31237;45.586;13.782;2023-12-20T08:30:38;8.40;93.00
45491;DHT22;31237;45.586;13.782;2023-12-20T08:33:04;8.50;93.10
45491;DHT22;31237;45.586;13.782;2023-12-20T08:35:30;8.60;92.90
45491;DHT22;31237;45.586;13.782;2023-12-20T08:37:56;8.70;92.40
45491;DHT22;31237;45.586;13.782;2023-12-20T08:40:22;8.70;92.10
45491;DHT22;31237;45.586;13.782;2023-12-20T08:42:47;8.80;92.00
45491;DHT22;31237;45.586;13.782;2023-12-20T08:45:13;8.80;91.80
45491;DHT22;31237;45.586;13.782;2023-12-20T08:47:39;8.90;91.60
45491;DHT22;31237;45.586;13.782;2023-12-20T08:50:07;8.90;91.50
45491;DHT22;31237;45.586;13.782;2023-12-20T08:52:32;9.00;91.60
45491;DHT22;31237;45.586;13.782;2023-12-20T08:54:58;9.00;91.50
45491;DHT22;31237;45.586;13.782;2023-12-20T08:57:24;9.00;91.30
45491;DHT22;31237;45.586;13.782;2023-12-20T08:59:50;9.00;91.20
45491;DHT22;31237;45.586;13.782;2023-12-20T09:02:16;9.00;91.30
45491;DHT22;31237;45.586;13.782;2023-12-20T09:04:43;9.10;91.30
45491;DHT22;31237;45.586;13.782;2023-12-20T09:07:21;9.10;91.30
45491;DHT22;31237;45.586;13.782;2023-12-20T09:09:47;9.10;91.20
45491;DHT22;31237;45.586;13.782;2023-12-20T09:12:13;9.10;91.20
45491;DHT22;31237;45.586;13.782;2023-12-20T09:14:39;9.10;91.20
45491;DHT22;31237;45.586;13.782;2023-12-20T09:17:04;9.10;91.20
45491;DHT22;31237;45.586;13.782;2023-12-20T09:19:30;9.20;91.20
45491;DHT22;31237;45.586;13.782;2023-12-20T09:21:56;9.20;91.20
45491;DHT22;31237;45.586;13.782;2023-12-20T09:24:21;9.20;91.20
45491;DHT22;31237;45.586;13.782;2023-12-20T09:26:47;9.20;91.20
45491;DHT22;31237;45.586;13.782;2023-12-20T09:29:13;9.30;91.20
45491;DHT22;31237;45.586;13.782;2023-12-20T09:31:41;9.30;91.00
45491;DHT22;31237;45.586;13.782;2023-12-20T09:34:09;9.40;91.00
45491;DHT22;31237;45.586;13.782;2023-12-20T09:36:35;9.40;91.00
45491;DHT22;31237;45.586;13.782;2023-12-20T09:39:01;9.40;91.00
45491;DHT22;31237;45.586;13.782;2023-12-20T09:41:31;9.50;91.00
45491;DHT22;31237;45.586;13.782;2023-12-20T09:44:00;9.60;90.90
45491;DHT22;31237;45.586;13.782;2023-12-20T09:46:29;9.70;91.00
45491;DHT22;31237;45.586;13.782;2023-12-20T09:48:59;9.70;90.90
45491;DHT22;31237;45.586;13.782;2023-12-20T09:51:28;9.80;90.90
45491;DHT22;31237;45.586;13.782;2023-12-20T09:53:54;9.90;90.90
45491;DHT22;31237;45.586;13.782;2023-12-20T09:56:22;10.00;90.80
45491;DHT22;31237;45.586;13.782;2023-12-20T09:58:48;10.10;90.80
45491;DHT22;31237;45.586;13.782;2023-12-20T10:01:15;10.10;90.80
45491;DHT22;31237;45.586;13.782;2023-12-20T10:03:41;10.20;90.90
45491;DHT22;31237;45.586;13.782;2023-12-20T10:06:08;10.20;90.80
45491;DHT22;31237;45.586;13.782;2023-12-20T10:08:34;10.30;90.70
45491;DHT22;31237;45.586;13.782;2023-12-20T10:11:00;10.40;90.70
45491;DHT22;31237;45.586;13.782;2023-12-20T10:13:28;10.40;90.70
45491;DHT22;31237;45.586;13.782;2023-12-20T10:15:55;10.50;90.70
45491;DHT22;31237;45.586;13.782;2023-12-20T10:18:21;10.60;90.70
45491;DHT22;31237;45.586;13.782;2023-12-20T10:20:47;10.60;90.70
45491;DHT22;31237;45.586;13.782;2023-12-20T10:23:15;10.70;90.70
45491;DHT22;31237;45.586;13.782;2023-12-20T10:25:41;10.70;90.70
45491;DHT22;31237;45.586;13.782;2023-12-20T10:30:38;10.80;90.80
45491;DHT22;31237;45.586;13.782;2023-12-20T10:33:06;10.80;90.80
45491;DHT22;31237;45.586;13.782;2023-12-20T10:35:32;10.80;90.90
45491;DHT22;31237;45.586;13.782;2023-12-20T10:37:59;10.80;91.00
45491;DHT22;31237;45.586;13.782;2023-12-20T10:40:29;10.80;91.00
45491;DHT22;31237;45.586;13.782;2023-12-20T10:42:56;10.80;91.10
45491;DHT22;31237;45.586;13.782;2023-12-20T10:45:23;10.80;91.10
45491;DHT22;31237;45.586;13.782;2023-12-20T10:47:50;10.90;91.40
45491;DHT22;31237;45.586;13.782;2023-12-20T10:50:16;10.80;91.30
45491;DHT22;31237;45.586;13.782;2023-12-20T10:52:44;10.90;91.40
45491;DHT22;31237;45.586;13.782;2023-12-20T10:55:11;10.80;91.50
45491;DHT22;31237;45.586;13.782;2023-12-20T10:57:37;10.80;91.60
45491;DHT22;31237;45.586;13.782;2023-12-20T11:00:03;10.90;91.70
45491;DHT22;31237;45.586;13.782;2023-12-20T11:02:32;10.90;91.70
45491;DHT22;31237;45.586;13.782;2023-12-20T11:07:43;11.00;91.60
45491;DHT22;31237;45.586;13.782;2023-12-20T11:10:29;11.10;91.60
45491;DHT22;31237;45.586;13.782;2023-12-20T11:13:01;11.10;91.60
45491;DHT22;31237;45.586;13.782;2023-12-20T11:15:37;11.20;91.70
45491;DHT22;31237;45.586;13.782;2023-12-20T11:18:04;11.30;91.70
45491;DHT22;31237;45.586;13.782;2023-12-20T11:20:38;11.30;91.60
45491;DHT22;31237;45.586;13.782;2023-12-20T11:23:05;11.40;91.70
45491;DHT22;31237;45.586;13.782;2023-12-20T11:25:49;11.40;91.70
45491;DHT22;31237;45.586;13.782;2023-12-20T11:28:21;11.50;91.60
45491;DHT22;31237;45.586;13.782;2023-12-20T11:30:49;11.60;91.60
45491;DHT22;31237;45.586;13.782;2023-12-20T11:33:16;11.60;91.60
45491;DHT22;31237;45.586;13.782;2023-12-20T11:35:43;11.60;91.60
45491;DHT22;31237;45.586;13.782;2023-12-20T11:38:10;11.70;91.70
45491;DHT22;31237;45.586;13.782;2023-12-20T11:40:36;11.80;91.70
45491;DHT22;31237;45.586;13.782;2023-12-20T11:43:03;11.80;91.80
45491;DHT22;31237;45.586;13.782;2023-12-20T11:45:30;11.90;91.90
45491;DHT22;31237;45.586;13.782;2023-12-20T11:47:56;11.90;91.80
45491;DHT22;31237;45.586;13.782;2023-12-20T11:50:23;11.90;91.80
45491;DHT22;31237;45.586;13.782;2023-12-20T11:52:51;11.90;91.80
45491;DHT22;31237;45.586;13.782;2023-12-20T11:55:17;12.00;91.80
45491;DHT22;31237;45.586;13.782;2023-12-20T11:57:43;12.00;91.70
45491;DHT22;31237;45.586;13.782;2023-12-20T12:00:10;12.00;91.60
45491;DHT22;31237;45.586;13.782;2023-12-20T12:02:37;12.00;91.50
45491;DHT22;31237;45.586;13.782;2023-12-20T12:05:02;12.00;91.40
45491;DHT22;31237;45.586;13.782;2023-12-20T12:07:31;12.00;91.30
45491;DHT22;31237;45.586;13.782;2023-12-20T12:09:57;12.00;91.10
45491;DHT22;31237;45.586;13.782;2023-12-20T12:12:24;12.00;91.10
45491;DHT22;31237;45.586;13.782;2023-12-20T12:14:51;12.00;91.10
45491;DHT22;31237;45.586;13.782;2023-12-20T12:17:17;12.00;91.10
45491;DHT22;31237;45.586;13.782;2023-12-20T12:19:43;12.00;91.20
45491;DHT22;31237;45.586;13.782;2023-12-20T12:22:18;12.00;91.20
45491;DHT22;31237;45.586;13.782;2023-12-20T12:24:46;12.00;91.10
45491;DHT22;31237;45.586;13.782;2023-12-20T12:27:13;12.00;91.10
45491;DHT22;31237;45.586;13.782;2023-12-20T12:29:39;12.00;91.20
45491;DHT22;31237;45.586;13.782;2023-12-20T12:32:06;12.00;91.30
45491;DHT22;31237;45.586;13.782;2023-12-20T12:34:33;12.00;91.30
45491;DHT22;31237;45.586;13.782;2023-12-20T12:37:03;12.00;91.40
45491;DHT22;31237;45.586;13.782;2023-12-20T12:39:29;12.00;91.40
45491;DHT22;31237;45.586;13.782;2023-12-20T12:41:56;12.00;91.50
45491;DHT22;31237;45.586;13.782;2023-12-20T12:44:22;12.10;91.60
45491;DHT22;31237;45.586;13.782;2023-12-20T12:46:50;12.10;91.70
45491;DHT22;31237;45.586;13.782;2023-12-20T12:49:17;12.10;91.70
45491;DHT22;31237;45.586;13.782;2023-12-20T12:51:43;12.10;91.80
45491;DHT22;31237;45.586;13.782;2023-12-20T12:54:09;12.10;91.90
45491;DHT22;31237;45.586;13.782;2023-12-20T12:56:36;12.10;91.90
45491;DHT22;31237;45.586;13.782;2023-12-20T12:59:02;12.10;92.00
45491;DHT22;31237;45.586;13.782;2023-12-20T13:01:28;12.10;92.00
45491;DHT22;31237;45.586;13.782;2023-12-20T13:03:54;12.10;92.10
45491;DHT22;31237;45.586;13.782;2023-12-20T13:06:20;12.10;92.20
45491;DHT22;31237;45.586;13.782;2023-12-20T13:08:46;12.10;92.20
45491;DHT22;31237;45.586;13.782;2023-12-20T13:11:11;12.10;92.20
45491;DHT22;31237;45.586;13.782;2023-12-20T13:13:37;12.10;92.30
45491;DHT22;31237;45.586;13.782;2023-12-20T13:16:03;12.10;92.30
45491;DHT22;31237;45.586;13.782;2023-12-20T13:18:29;12.10;92.30
45491;DHT22;31237;45.586;13.782;2023-12-20T13:20:55;12.10;92.30
45491;DHT22;31237;45.586;13.782;2023-12-20T13:23:20;12.10;92.30
45491;DHT22;31237;45.586;13.782;2023-12-20T13:25:46;12.10;92.40
45491;DHT22;31237;45.586;13.782;2023-12-20T13:28:12;12.10;92.50
45491;DHT22;31237;45.586;13.782;2023-12-20T13:30:38;12.10;92.50
45491;DHT22;31237;45.586;13.782;2023-12-20T13:33:05;12.00;92.60
45491;DHT22;31237;45.586;13.782;2023-12-20T13:35:31;12.00;92.60
45491;DHT22;31237;45.586;13.782;2023-12-20T13:37:58;12.00;92.70
45491;DHT22;31237;45.586;13.782;2023-12-20T13:40:23;12.00;92.70
45491;DHT22;31237;45.586;13.782;2023-12-20T13:42:49;12.00;92.80
45491;DHT22;31237;45.586;13.782;2023-12-20T13:45:15;12.00;92.80
45491;DHT22;31237;45.586;13.782;2023-12-20T13:47:41;11.90;92.80
45491;DHT22;31237;45.586;13.782;2023-12-20T13:50:07;12.00;92.90
45491;DHT22;31237;45.586;13.782;2023-12-20T13:52:33;11.90;92.90
45491;DHT22;31237;45.586;13.782;2023-12-20T13:54:58;11.90;93.00
45491;DHT22;31237;45.586;13.782;2023-12-20T13:57:24;11.90;93.00
45491;DHT22;31237;45.586;13.782;2023-12-20T13:59:50;11.90;93.10
45491;DHT22;31237;45.586;13.782;2023-12-20T14:02:16;11.80;93.10
45491;DHT22;31237;45.586;13.782;2023-12-20T14:04:42;11.80;93.10
45491;DHT22;31237;45.586;13.782;2023-12-20T14:07:08;11.80;93.20
45491;DHT22;31237;45.586;13.782;2023-12-20T14:09:35;11.80;93.30
45491;DHT22;31237;45.586;13.782;2023-12-20T14:12:01;11.70;93.30
45491;DHT22;31237;45.586;13.782;2023-12-20T14:14:27;11.70;93.40
45491;DHT22;31237;45.586;13.782;2023-12-20T14:16:52;11.70;93.50
45491;DHT22;31237;45.586;13.782;2023-12-20T14:19:18;11.60;93.50
45491;DHT22;31237;45.586;13.782;2023-12-20T14:21:44;11.60;93.60
45491;DHT22;31237;45.586;13.782;2023-12-20T14:24:14;11.50;93.60
45491;DHT22;31237;45.586;13.782;2023-12-20T14:26:41;11.50;93.70
45491;DHT22;31237;45.586;13.782;2023-12-20T14:29:07;11.40;93.70
45491;DHT22;31237;45.586;13.782;2023-12-20T14:31:33;11.40;93.80
45491;DHT22;31237;45.586;13.782;2023-12-20T14:33:59;11.40;93.90
45491;DHT22;31237;45.586;13.782;2023-12-20T14:36:29;11.30;93.90
45491;DHT22;31237;45.586;13.782;2023-12-20T14:38:56;11.30;94.00
45491;DHT22;31237;45.586;13.782;2023-12-20T14:41:22;11.20;94.00
45491;DHT22;31237;45.586;13.782;2023-12-20T14:43:53;11.20;94.10
45491;DHT22;31237;45.586;13.782;2023-12-20T14:46:19;11.10;94.20
45491;DHT22;31237;45.586;13.782;2023-12-20T14:48:44;11.10;94.20
45491;DHT22;31237;45.586;13.782;2023-12-20T14:51:10;11.00;94.20
45491;DHT22;31237;45.586;13.782;2023-12-20T14:53:37;11.00;94.40
45491;DHT22;31237;45.586;13.782;2023-12-20T14:56:06;11.00;94.40
45491;DHT22;31237;45.586;13.782;2023-12-20T14:58:32;11.00;94.50
45491;DHT22;31237;45.586;13.782;2023-12-20T15:00:59;10.90;94.50
45491;DHT22;31237;45.586;13.782;2023-12-20T15:03:25;10.90;94.60
45491;DHT22;31237;45.586;13.782;2023-12-20T15:05:51;10.80;94.60
45491;DHT22;31237;45.586;13.782;2023-12-20T15:08:17;10.80;94.60
45491;DHT22;31237;45.586;13.782;2023-12-20T15:10:42;10.80;94.70
45491;DHT22;31237;45.586;13.782;2023-12-20T15:13:08;10.70;94.70
45491;DHT22;31237;45.586;13.782;2023-12-20T15:15:34;10.70;94.80
45491;DHT22;31237;45.586;13.782;2023-12-20T15:18:00;10.70;94.90
45491;DHT22;31237;45.586;13.782;2023-12-20T15:20:26;10.60;94.90
45491;DHT22;31237;45.586;13.782;2023-12-20T15:22:52;10.60;95.00
45491;DHT22;31237;45.586;13.782;2023-12-20T15:25:18;10.70;95.00